Domov               UVHVVR             MKGP            O straneh              
ZDRAVSTVENO VARSTVO RASTLIN
  MREŽA AGROMET. POSTAJ
 ► PROGNOSTIČNA OBVESTILA
AGROMETEOROLOŠKI PODATKI -
ARSO
OBVLADOVANJE TVEGANJ ZARADI
NEUGODNIH VREMENSKIH RAZMER
  ► NARAVNE NESREČE
  ► SUŠA/MOČA
  ► NAMAKANJE
  ► ŽLED (gozdarstvo)
KARTOGRAFSKI PRIKAZI
SPLETNE POVEZAVE
PROJEKTI IN PUBLIKACIJE

AGROMETEOROLOŠKA MREŽA: VREMENSKE POSTAJE IN FENOLOŠKA OPAZOVANJA

Pregled podatkov za lokacijo Dragonja, meteorološka postaja 42389

Pregled senzorjev na lokaciji

ID Ime Zadnja
vrednost
Datum
zadnje
spremembe
Tip
senzorja
2095 Temperatura 2 m ( °C) 31,04 °C 17.8.2017 19:00 50YA
2096 Relativna vlaga 2 m (% RH) 33,84 % RH 17.8.2017 19:00 50YA
2097 Omočenost lista (U) 0 U 17.8.2017 19:00 A730WET
2098 Padavine 0.2 mm (mm) 0 mm 17.8.2017 19:00 Rain-O-Matic

Pregled podatkov zadnjih 24 ur

Zap.
št.
Datum in čas Dragonja
Omočenost
lista
Padavine
0.2
mm
Relativna
vlaga
2
m
Temperatura
2
m
0 17.8.2017 18:00 0 0 33,84 31,04
1 17.8.2017 17:30 0 0 31,18 32,18
2 17.8.2017 17:00 0 0 28,28 32,9
3 17.8.2017 16:30 0 0 24,93 33,72
4 17.8.2017 16:00 0 0 24,39 34,16
5 17.8.2017 15:30 0 0 24,89 34,56
6 17.8.2017 15:00 0 0 24,91 34,83
7 17.8.2017 14:30 0 0 24,05 34,94
8 17.8.2017 14:00 0 0 23,31 34,93
9 17.8.2017 13:30 0 0 23,87 34,32
10 17.8.2017 13:00 0 0 24,34 34,76
11 17.8.2017 12:30 0 0 26,12 34,27
12 17.8.2017 12:00 0 0 28,45 33,39
13 17.8.2017 11:30 0 0 25,09 34,4
14 17.8.2017 11:00 0 0 26,59 33,41
15 17.8.2017 10:30 0 0 28,4 32,91
16 17.8.2017 10:00 0 0 28,78 32,19
17 17.8.2017 09:30 0 0 29,52 31,69
18 17.8.2017 09:00 0 0 33,37 31,11
19 17.8.2017 08:30 0 0 39,29 29,3
20 17.8.2017 08:00 0 0 49,75 25,8
21 17.8.2017 07:30 0 0 58,38 23,26
22 17.8.2017 07:00 0 0 65,86 20,94
23 17.8.2017 06:30 0 0 74,78 18,32
24 17.8.2017 06:00 0 0 83,35 16,04
25 17.8.2017 05:30 0 0 81,78 16,23
26 17.8.2017 05:00 0 0 81,65 16,36
27 17.8.2017 04:30 0 0 79,47 16,75
28 17.8.2017 04:00 0 0 80,08 16,71
29 17.8.2017 03:30 0 0 79,95 16,86
30 17.8.2017 03:00 0 0 78,98 16,98
31 17.8.2017 02:30 0 0 76,79 17,52
32 17.8.2017 02:00 0 0 73,43 18,19
33 17.8.2017 01:30 0 0 69,99 18,96
34 17.8.2017 01:00 0 0 68,97 19,15
35 17.8.2017 00:30 0 0 69,07 19,28
36 17.8.2017 00:00 0 0 68,35 19,53
37 16.8.2017 23:30 0 0 70,88 19,36
38 16.8.2017 23:00 0 0 71,16 19,63
39 16.8.2017 22:30 0 0 70,26 20,4
40 16.8.2017 22:00 0 0 68,54 21,34
41 16.8.2017 21:30 0 0 67,92 22,04
42 16.8.2017 21:00 0 0 70,87 22,41
43 16.8.2017 20:30 0 0 71,75 23,37
44 16.8.2017 20:00 0 0 71,93 25,2
45 16.8.2017 19:30 0 0 68,14 26,13
© 2011 Ministrstvo za kmetijstvo, gozdarstvo in prehrano. Vse pravice pridržane.